createdAt,value
2023-03-26T00:00:12.585Z,21.82
2023-03-26T00:02:39.748Z,22.01
2023-03-26T00:05:06.611Z,21.98
2023-03-26T00:07:33.412Z,21.63
2023-03-26T00:10:00.160Z,18.41
2023-03-26T00:12:27.131Z,17.11
2023-03-26T00:14:53.858Z,18.51
2023-03-26T00:17:21.138Z,19.73
2023-03-26T00:19:47.904Z,20.39
2023-03-26T00:22:16.942Z,20.54
2023-03-26T00:24:45.897Z,20.85
2023-03-26T00:27:12.669Z,21.03
2023-03-26T00:29:39.819Z,21.06
2023-03-26T00:32:06.618Z,21.32
2023-03-26T00:34:34.339Z,21.36
2023-03-26T00:37:02.430Z,21.54
2023-03-26T00:39:29.250Z,21.56
2023-03-26T00:41:56.029Z,21.67
2023-03-26T00:44:22.837Z,21.59
2023-03-26T00:46:49.598Z,21.66
2023-03-26T00:49:16.359Z,21.83
2023-03-26T00:51:43.158Z,21.81
2023-03-26T00:54:09.903Z,21.91
2023-03-26T00:56:36.824Z,21.93
2023-03-26T00:59:03.799Z,21.90
2023-03-26T01:01:31.595Z,18.87
2023-03-26T01:04:08.750Z,17.01
2023-03-26T01:06:36.684Z,18.45
2023-03-26T01:09:03.761Z,19.60
2023-03-26T01:11:30.663Z,20.16
2023-03-26T01:13:57.403Z,20.57
2023-03-26T01:16:24.197Z,20.83
2023-03-26T01:18:52.609Z,20.89
2023-03-26T01:21:22.532Z,21.09
2023-03-26T01:23:49.312Z,21.18
2023-03-26T01:26:16.077Z,21.40
2023-03-26T01:28:42.814Z,21.47
2023-03-26T01:31:09.936Z,21.50
2023-03-26T01:33:36.791Z,21.58
2023-03-26T01:36:03.648Z,21.64
2023-03-26T01:38:30.491Z,21.68
2023-03-26T01:40:57.739Z,21.76
2023-03-26T01:43:24.468Z,21.80
2023-03-26T01:45:51.218Z,21.85
2023-03-26T01:48:18.005Z,21.91
2023-03-26T01:50:44.840Z,22.03
2023-03-26T01:53:11.635Z,20.14
2023-03-26T01:55:38.388Z,17.56
2023-03-26T01:58:05.258Z,17.74
2023-03-26T02:00:32.241Z,19.67
2023-03-26T02:02:59.188Z,20.06
2023-03-26T02:05:26.506Z,20.55
2023-03-26T02:07:53.386Z,20.69
2023-03-26T02:10:20.969Z,20.93
2023-03-26T02:12:47.728Z,21.10
2023-03-26T02:15:14.550Z,21.25
2023-03-26T02:17:41.417Z,21.52
2023-03-26T02:20:09.781Z,21.49
2023-03-26T02:22:40.641Z,21.59
2023-03-26T02:25:07.628Z,21.65
2023-03-26T02:27:34.371Z,21.62
2023-03-26T02:30:02.313Z,21.91
2023-03-26T02:32:29.407Z,21.82
2023-03-26T02:34:56.255Z,21.94
2023-03-26T02:37:23.034Z,21.92
2023-03-26T02:39:49.776Z,21.87
2023-03-26T02:42:16.522Z,22.01
2023-03-26T02:44:43.322Z,19.49
2023-03-26T02:47:10.097Z,17.55
2023-03-26T02:49:36.937Z,17.62
2023-03-26T02:52:06.297Z,19.50
2023-03-26T02:54:34.112Z,20.22
2023-03-26T02:57:00.978Z,20.61
2023-03-26T02:59:27.779Z,20.75
2023-03-26T03:01:54.569Z,20.88
2023-03-26T03:04:21.776Z,20.96
2023-03-26T03:06:52.843Z,21.14
2023-03-26T03:09:20.036Z,21.34
2023-03-26T03:11:46.800Z,21.39
2023-03-26T03:14:13.597Z,21.46
2023-03-26T03:16:41.064Z,21.46
2023-03-26T03:19:07.880Z,21.58
2023-03-26T03:21:34.674Z,21.76
2023-03-26T03:24:01.398Z,21.82
2023-03-26T03:26:29.517Z,21.82
2023-03-26T03:28:57.374Z,21.85
2023-03-26T03:31:24.666Z,21.90
2023-03-26T03:33:51.441Z,21.99
2023-03-26T03:36:20.176Z,20.84
2023-03-26T03:38:48.542Z,17.99
2023-03-26T03:41:15.475Z,17.09
2023-03-26T03:43:42.238Z,19.28
2023-03-26T03:46:09.002Z,20.25
2023-03-26T03:48:38.154Z,20.47
2023-03-26T03:51:05.069Z,20.74
2023-03-26T03:53:31.845Z,20.90
2023-03-26T03:55:59.569Z,21.14
2023-03-26T03:58:28.049Z,21.17
2023-03-26T04:01:00.602Z,21.34
2023-03-26T04:03:33.613Z,21.28
2023-03-26T04:06:01.378Z,21.46
2023-03-26T04:08:28.224Z,21.47
2023-03-26T04:10:55.108Z,21.56
2023-03-26T04:13:21.947Z,21.68
2023-03-26T04:15:48.720Z,21.68
2023-03-26T04:18:15.538Z,21.81
2023-03-26T04:20:46.275Z,21.87
2023-03-26T04:23:14.144Z,21.90
2023-03-26T04:25:41.013Z,22.01
2023-03-26T04:28:08.402Z,20.70
2023-03-26T04:30:35.145Z,17.91
2023-03-26T04:33:03.850Z,17.05
2023-03-26T04:35:34.249Z,19.26
2023-03-26T04:38:01.008Z,19.82
2023-03-26T04:40:30.375Z,20.25
2023-03-26T04:42:59.805Z,20.58
2023-03-26T04:45:26.608Z,20.83
2023-03-26T04:47:53.405Z,20.89
2023-03-26T04:50:20.209Z,21.01
2023-03-26T04:52:46.946Z,21.19
2023-03-26T04:55:13.723Z,21.43
2023-03-26T04:57:42.569Z,21.44
2023-03-26T05:00:14.882Z,21.47
2023-03-26T05:02:41.777Z,21.55
2023-03-26T05:05:08.547Z,21.70
2023-03-26T05:07:35.682Z,21.74
2023-03-26T05:10:03.623Z,21.76
2023-03-26T05:12:30.640Z,21.77
2023-03-26T05:14:57.482Z,21.99
2023-03-26T05:17:24.288Z,21.91
2023-03-26T05:19:51.972Z,22.00
2023-03-26T05:22:18.733Z,21.46
2023-03-26T05:24:45.485Z,18.43
2023-03-26T05:27:12.368Z,16.88
2023-03-26T05:29:39.123Z,18.88
2023-03-26T05:32:05.991Z,20.00
2023-03-26T05:34:32.883Z,20.34
2023-03-26T05:36:59.683Z,20.67
2023-03-26T05:39:27.495Z,20.83
2023-03-26T05:41:54.276Z,21.03
2023-03-26T05:44:21.011Z,21.12
2023-03-26T05:46:47.759Z,21.19
2023-03-26T05:49:14.526Z,21.33
2023-03-26T05:51:41.273Z,21.40
2023-03-26T05:54:08.040Z,21.48
2023-03-26T05:56:34.810Z,21.56
2023-03-26T05:59:01.602Z,21.63
2023-03-26T06:01:29.285Z,21.77
2023-03-26T06:03:56.151Z,21.84
2023-03-26T06:06:23.765Z,21.96
2023-03-26T06:09:01.975Z,22.01
2023-03-26T06:11:29.554Z,22.01
2023-03-26T06:13:56.285Z,21.32
2023-03-26T06:16:27.527Z,18.69
2023-03-26T06:18:56.893Z,16.82
2023-03-26T06:21:24.353Z,18.89
2023-03-26T06:23:51.615Z,19.80
2023-03-26T06:26:18.432Z,20.39
2023-03-26T06:28:45.204Z,20.66
2023-03-26T06:31:12.098Z,20.85
2023-03-26T06:33:38.923Z,21.00
2023-03-26T06:36:05.934Z,21.08
2023-03-26T06:38:32.841Z,21.20
2023-03-26T06:40:59.626Z,21.33
2023-03-26T06:43:26.423Z,21.45
2023-03-26T06:45:53.190Z,21.53
2023-03-26T06:48:19.950Z,21.53
2023-03-26T06:50:46.685Z,21.65
2023-03-26T06:53:13.408Z,21.68
2023-03-26T06:55:40.193Z,21.83
2023-03-26T06:58:06.946Z,21.85
2023-03-26T07:00:33.684Z,21.93
2023-03-26T07:03:00.482Z,22.04
2023-03-26T07:05:27.240Z,21.29
2023-03-26T07:07:53.983Z,18.11
2023-03-26T07:10:20.911Z,16.88
2023-03-26T07:12:47.699Z,18.81
2023-03-26T07:15:14.452Z,19.88
2023-03-26T07:17:41.294Z,20.33
2023-03-26T07:20:08.127Z,20.60
2023-03-26T07:22:35.027Z,20.79
2023-03-26T07:25:01.839Z,21.01
2023-03-26T07:27:28.973Z,21.21
2023-03-26T07:29:56.684Z,21.35
2023-03-26T07:32:23.472Z,21.32
2023-03-26T07:34:50.384Z,21.56
2023-03-26T07:37:17.125Z,21.55
2023-03-26T07:39:43.960Z,21.62
2023-03-26T07:42:10.720Z,21.78
2023-03-26T07:44:37.474Z,21.69
2023-03-26T07:47:04.774Z,21.81
2023-03-26T07:49:32.487Z,21.81
2023-03-26T07:51:59.261Z,21.87
2023-03-26T07:54:26.202Z,21.94
2023-03-26T07:56:56.557Z,19.76
2023-03-26T07:59:25.884Z,17.91
2023-03-26T08:01:52.687Z,17.95
2023-03-26T08:04:24.063Z,19.70
2023-03-26T08:06:53.007Z,20.33
2023-03-26T08:09:20.549Z,20.68
2023-03-26T08:11:47.369Z,20.89
2023-03-26T08:14:14.109Z,21.01
2023-03-26T08:16:40.964Z,21.16
2023-03-26T08:19:07.738Z,21.33
2023-03-26T08:21:34.708Z,21.28
2023-03-26T08:24:01.558Z,21.46
2023-03-26T08:26:29.476Z,21.49
2023-03-26T08:28:56.236Z,21.61
2023-03-26T08:31:23.044Z,21.71
2023-03-26T08:33:49.972Z,21.73
2023-03-26T08:36:16.729Z,21.89
2023-03-26T08:38:45.120Z,21.85
2023-03-26T08:41:18.744Z,21.92
2023-03-26T08:43:45.495Z,20.99
2023-03-26T08:46:12.295Z,18.39
2023-03-26T08:48:39.034Z,17.19
2023-03-26T08:51:07.584Z,19.25
2023-03-26T08:53:34.338Z,20.12
2023-03-26T08:56:01.247Z,20.52
2023-03-26T08:58:28.008Z,20.87
2023-03-26T09:00:54.997Z,20.95
2023-03-26T09:03:22.003Z,21.13
2023-03-26T09:05:48.756Z,21.32
2023-03-26T09:08:15.833Z,21.38
2023-03-26T09:10:42.583Z,21.40
2023-03-26T09:13:09.380Z,21.42
2023-03-26T09:15:36.127Z,21.53
2023-03-26T09:18:02.902Z,21.72
2023-03-26T09:20:29.676Z,21.68
2023-03-26T09:22:56.451Z,21.72
2023-03-26T09:25:23.202Z,21.95
2023-03-26T09:27:50.153Z,21.97
2023-03-26T09:30:16.900Z,22.05
2023-03-26T09:32:43.924Z,21.30
2023-03-26T09:35:13.068Z,18.27
2023-03-26T09:37:57.376Z,16.91
2023-03-26T09:40:25.211Z,19.10
2023-03-26T09:42:52.154Z,20.13
2023-03-26T09:45:18.964Z,20.59
2023-03-26T09:47:46.066Z,20.97
2023-03-26T09:50:12.865Z,20.93
2023-03-26T09:52:39.628Z,21.03
2023-03-26T09:55:08.145Z,21.05
2023-03-26T09:57:34.941Z,21.28
2023-03-26T10:00:01.771Z,21.42
2023-03-26T10:02:45.826Z,21.47
2023-03-26T10:05:14.066Z,21.52
2023-03-26T10:07:40.826Z,21.64
2023-03-26T10:10:07.595Z,21.63
2023-03-26T10:12:34.517Z,21.84
2023-03-26T10:15:01.446Z,21.89
2023-03-26T10:17:28.574Z,21.94
2023-03-26T10:19:55.396Z,21.96
2023-03-26T10:22:22.203Z,21.25
2023-03-26T10:24:48.948Z,19.09
2023-03-26T10:27:15.832Z,18.73
2023-03-26T10:29:42.624Z,20.28
2023-03-26T10:32:09.410Z,20.79
2023-03-26T10:34:36.155Z,20.86
2023-03-26T10:37:02.899Z,21.17
2023-03-26T10:39:36.918Z,21.17
2023-03-26T10:42:06.132Z,21.42
2023-03-26T10:44:33.096Z,21.44
2023-03-26T10:46:59.858Z,21.57
2023-03-26T10:49:26.605Z,21.69
2023-03-26T10:51:53.517Z,21.81
2023-03-26T10:54:20.367Z,21.82
2023-03-26T10:56:47.335Z,21.89
2023-03-26T10:59:14.170Z,21.68
2023-03-26T11:01:41.432Z,19.22
2023-03-26T11:04:08.368Z,18.76
2023-03-26T11:06:35.290Z,19.82
2023-03-26T11:09:02.103Z,20.61
2023-03-26T11:11:29.312Z,21.00
2023-03-26T11:13:56.057Z,21.22
2023-03-26T11:16:22.872Z,21.25
2023-03-26T11:18:49.640Z,21.35
2023-03-26T11:21:19.880Z,21.48
2023-03-26T11:23:47.277Z,21.65
2023-03-26T11:26:31.736Z,21.62
2023-03-26T11:29:04.049Z,21.76
2023-03-26T11:31:45.468Z,21.84
2023-03-26T11:34:12.263Z,21.85
2023-03-26T11:36:39.359Z,22.02
2023-03-26T11:39:08.765Z,22.03
2023-03-26T11:41:35.548Z,20.26
2023-03-26T11:44:03.806Z,18.17
2023-03-26T11:46:33.133Z,18.09
2023-03-26T11:49:00.460Z,19.89
2023-03-26T11:51:27.414Z,20.50
2023-03-26T11:53:54.474Z,20.82
2023-03-26T11:56:21.232Z,20.96
2023-03-26T11:58:48.090Z,21.10
2023-03-26T12:01:15.308Z,21.17
2023-03-26T12:03:42.048Z,21.49
2023-03-26T12:06:11.125Z,21.48
2023-03-26T12:08:37.954Z,21.61
2023-03-26T12:11:04.719Z,21.56
2023-03-26T12:13:31.463Z,21.64
2023-03-26T12:15:58.618Z,21.79
2023-03-26T12:18:25.978Z,21.87
2023-03-26T12:20:53.969Z,21.92
2023-03-26T12:23:20.864Z,22.07
2023-03-26T12:25:47.607Z,19.73
2023-03-26T12:28:15.456Z,18.40
2023-03-26T12:30:42.256Z,19.15
2023-03-26T12:33:09.477Z,20.19
2023-03-26T12:35:36.279Z,20.62
2023-03-26T12:38:03.055Z,20.92
2023-03-26T12:40:30.060Z,21.18
2023-03-26T12:44:46.329Z,21.23
2023-03-26T12:45:44.440Z,21.32
2023-03-26T12:48:11.613Z,21.54
2023-03-26T12:50:38.449Z,21.64
2023-03-26T12:53:05.464Z,21.71
2023-03-26T12:55:32.270Z,21.72
2023-03-26T12:57:59.003Z,21.79
2023-03-26T13:00:25.791Z,21.90
2023-03-26T13:02:53.025Z,21.97
2023-03-26T13:05:19.874Z,21.84
2023-03-26T13:07:47.152Z,18.88
2023-03-26T13:10:15.511Z,17.64
2023-03-26T13:12:42.274Z,18.89
2023-03-26T13:15:09.043Z,20.07
2023-03-26T13:17:35.824Z,20.58
2023-03-26T13:20:02.673Z,20.84
2023-03-26T13:22:29.484Z,20.94
2023-03-26T13:24:56.225Z,21.09
2023-03-26T13:27:23.021Z,21.28
2023-03-26T13:29:56.180Z,21.24
2023-03-26T13:32:23.048Z,21.53
2023-03-26T13:34:49.836Z,21.50
2023-03-26T13:37:16.580Z,21.60
2023-03-26T13:39:45.439Z,21.70
2023-03-26T13:42:12.209Z,21.83
2023-03-26T13:44:39.126Z,21.83
2023-03-26T13:47:06.085Z,21.83
2023-03-26T13:49:37.045Z,21.95
2023-03-26T13:52:04.296Z,19.97
2023-03-26T13:54:31.165Z,19.13
2023-03-26T13:56:58.383Z,19.25
2023-03-26T13:59:25.578Z,20.66
2023-03-26T14:01:53.317Z,20.96
2023-03-26T14:04:21.346Z,21.08
2023-03-26T14:06:48.658Z,21.21
2023-03-26T14:09:15.468Z,21.38
2023-03-26T14:11:42.215Z,21.40
2023-03-26T14:14:09.001Z,21.53
2023-03-26T14:16:35.747Z,21.60
2023-03-26T14:19:04.642Z,21.73
2023-03-26T14:21:33.363Z,21.78
2023-03-26T14:24:00.497Z,21.86
2023-03-26T14:26:27.278Z,21.92
2023-03-26T14:28:54.064Z,22.06
2023-03-26T14:31:20.835Z,20.21
2023-03-26T14:33:47.598Z,17.75
2023-03-26T14:36:14.604Z,18.64
2023-03-26T14:38:41.593Z,20.16
2023-03-26T14:41:08.359Z,20.79
2023-03-26T14:43:35.106Z,20.95
2023-03-26T14:46:01.998Z,21.10
2023-03-26T14:48:28.957Z,21.28
2023-03-26T14:50:56.019Z,21.32
2023-03-26T14:53:23.150Z,21.56
2023-03-26T14:55:49.915Z,21.56
2023-03-26T14:58:16.659Z,21.65
2023-03-26T15:00:43.552Z,21.64
2023-03-26T15:03:10.335Z,21.77
2023-03-26T15:05:37.163Z,21.99
2023-03-26T15:08:03.912Z,21.96
2023-03-26T15:10:30.649Z,19.87
2023-03-26T15:12:57.566Z,17.58
2023-03-26T15:15:25.847Z,17.66
2023-03-26T15:17:52.631Z,19.66
2023-03-26T15:20:19.651Z,20.35
2023-03-26T15:22:46.431Z,20.59
2023-03-26T15:25:13.344Z,20.90
2023-03-26T15:27:40.100Z,20.91
2023-03-26T15:30:06.838Z,21.08
2023-03-26T15:32:33.619Z,21.19
2023-03-26T15:35:00.459Z,21.33
2023-03-26T15:37:27.372Z,21.48
2023-03-26T15:40:12.667Z,21.61
2023-03-26T15:42:39.535Z,21.68
2023-03-26T15:45:06.274Z,21.78
2023-03-26T15:47:33.124Z,21.82
2023-03-26T15:49:59.897Z,21.87
2023-03-26T15:52:26.683Z,21.94
2023-03-26T15:54:53.494Z,21.44
2023-03-26T15:57:20.465Z,18.32
2023-03-26T15:59:47.278Z,16.88
2023-03-26T16:02:16.013Z,18.95
2023-03-26T16:04:50.471Z,20.09
2023-03-26T16:07:19.149Z,20.36
2023-03-26T16:09:46.119Z,20.72
2023-03-26T16:12:12.868Z,20.92
2023-03-26T16:14:39.633Z,21.00
2023-03-26T16:17:06.428Z,21.19
2023-03-26T16:19:36.053Z,21.43
2023-03-26T16:22:02.847Z,21.42
2023-03-26T16:24:30.299Z,21.54
2023-03-26T16:26:57.083Z,21.59
2023-03-26T16:29:24.528Z,21.59
2023-03-26T16:31:51.290Z,21.66
2023-03-26T16:34:18.178Z,21.76
2023-03-26T16:36:45.123Z,21.87
2023-03-26T16:39:11.900Z,21.94
2023-03-26T16:41:38.651Z,21.96
2023-03-26T16:44:05.556Z,21.95
2023-03-26T16:46:32.468Z,19.09
2023-03-26T16:48:59.232Z,17.20
2023-03-26T16:51:26.040Z,18.30
2023-03-26T16:53:52.800Z,19.82
2023-03-26T16:56:26.053Z,20.37
2023-03-26T16:58:53.661Z,20.67
2023-03-26T17:01:21.128Z,20.89
2023-03-26T17:03:48.002Z,21.22
2023-03-26T17:06:15.169Z,21.13
2023-03-26T17:08:42.473Z,21.28
2023-03-26T17:11:09.260Z,21.35
2023-03-26T17:13:36.211Z,21.54
2023-03-26T17:16:02.966Z,21.57
2023-03-26T17:18:29.854Z,21.58
2023-03-26T17:20:58.443Z,21.75
2023-03-26T17:23:25.239Z,21.82
2023-03-26T17:25:51.983Z,21.96
2023-03-26T17:28:18.764Z,21.94
2023-03-26T17:30:45.515Z,21.94
2023-03-26T17:33:13.260Z,22.00
2023-03-26T17:35:40.212Z,19.71
2023-03-26T17:38:07.960Z,17.83
2023-03-26T17:40:34.763Z,18.37
2023-03-26T17:43:01.536Z,19.64
2023-03-26T17:45:30.293Z,20.20
2023-03-26T17:48:00.289Z,20.80
2023-03-26T17:50:27.416Z,20.97
2023-03-26T17:52:54.165Z,21.15
2023-03-26T17:55:21.068Z,21.17
2023-03-26T17:57:47.985Z,21.27
2023-03-26T18:00:16.161Z,21.41
2023-03-26T18:02:43.159Z,21.46
2023-03-26T18:05:10.100Z,21.59
2023-03-26T18:07:36.844Z,21.60
2023-03-26T18:10:03.603Z,21.63
2023-03-26T18:12:30.356Z,21.80
2023-03-26T18:14:57.104Z,21.82
2023-03-26T18:17:23.902Z,21.84
2023-03-26T18:19:50.956Z,21.91
2023-03-26T18:22:17.931Z,22.06
2023-03-26T18:24:44.665Z,19.77
2023-03-26T18:27:12.440Z,17.87
2023-03-26T18:29:39.446Z,18.45
2023-03-26T18:32:07.200Z,19.64
2023-03-26T18:34:34.223Z,20.29
2023-03-26T18:37:01.126Z,20.62
2023-03-26T18:39:27.930Z,20.85
2023-03-26T18:41:54.731Z,21.07
2023-03-26T18:44:21.657Z,21.14
2023-03-26T18:46:48.454Z,21.19
2023-03-26T18:49:15.507Z,21.38
2023-03-26T18:51:53.994Z,21.40
2023-03-26T18:54:23.385Z,21.47
2023-03-26T18:56:51.960Z,21.65
2023-03-26T18:59:19.490Z,21.69
2023-03-26T19:01:47.445Z,21.82
2023-03-26T19:04:14.303Z,21.98
2023-03-26T19:06:41.095Z,21.86
2023-03-26T19:09:19.599Z,21.94
2023-03-26T19:11:55.624Z,21.20
2023-03-26T19:14:22.437Z,18.41
2023-03-26T19:16:49.232Z,17.23
2023-03-26T19:19:16.355Z,19.16
2023-03-26T19:21:43.159Z,20.15
2023-03-26T19:24:10.246Z,20.60
2023-03-26T19:26:36.992Z,20.86
2023-03-26T19:29:03.748Z,20.96
2023-03-26T19:31:31.612Z,21.01
2023-03-26T19:33:58.543Z,21.19
2023-03-26T19:36:25.308Z,21.29
2023-03-26T19:38:52.124Z,21.42
2023-03-26T19:41:18.862Z,21.51
2023-03-26T19:43:45.752Z,21.64
2023-03-26T19:46:12.545Z,21.58
2023-03-26T19:48:45.842Z,21.77
2023-03-26T19:51:13.770Z,21.89
2023-03-26T19:53:40.641Z,21.81
2023-03-26T19:56:07.540Z,21.99
2023-03-26T19:58:35.519Z,20.84
2023-03-26T20:01:02.279Z,18.32
2023-03-26T20:03:29.285Z,17.53
2023-03-26T20:05:56.336Z,19.32
2023-03-26T20:08:26.906Z,19.93
2023-03-26T20:10:54.431Z,20.52
2023-03-26T20:13:21.500Z,20.82
2023-03-26T20:15:48.255Z,21.02
2023-03-26T20:18:32.358Z,21.14
2023-03-26T20:20:59.181Z,21.21
2023-03-26T20:23:28.570Z,21.28
2023-03-26T20:25:55.513Z,21.37
2023-03-26T20:28:24.126Z,21.44
2023-03-26T20:30:50.969Z,21.62
2023-03-26T20:33:17.840Z,21.74
2023-03-26T20:35:44.718Z,21.71
2023-03-26T20:38:11.994Z,21.85
2023-03-26T20:40:38.820Z,21.85
2023-03-26T20:43:05.553Z,21.92
2023-03-26T20:45:32.853Z,21.93
2023-03-26T20:48:02.537Z,19.40
2023-03-26T20:50:30.033Z,17.76
2023-03-26T20:53:00.660Z,18.71
2023-03-26T20:55:28.228Z,19.71
2023-03-26T20:57:55.169Z,20.35
2023-03-26T21:00:25.950Z,20.80
2023-03-26T21:02:53.312Z,20.87
2023-03-26T21:05:24.399Z,20.98
2023-03-26T21:07:51.682Z,21.16
2023-03-26T21:10:19.507Z,21.25
2023-03-26T21:12:46.542Z,21.59
2023-03-26T21:15:20.832Z,21.47
2023-03-26T21:17:50.953Z,21.50
2023-03-26T21:20:17.859Z,21.62
2023-03-26T21:22:46.022Z,21.80
2023-03-26T21:25:12.810Z,21.83
2023-03-26T21:27:39.595Z,21.84
2023-03-26T21:30:06.423Z,21.93
2023-03-26T21:32:33.251Z,21.95
2023-03-26T21:35:00.654Z,22.02
2023-03-26T21:37:27.577Z,20.17
2023-03-26T21:39:54.347Z,18.63
2023-03-26T21:42:21.230Z,18.31
2023-03-26T21:44:47.981Z,19.53
2023-03-26T21:47:14.772Z,20.28
2023-03-26T21:49:41.617Z,20.59
2023-03-26T21:52:08.418Z,20.97
2023-03-26T21:54:35.343Z,20.97
2023-03-26T21:57:02.199Z,21.15
2023-03-26T21:59:28.946Z,21.31
2023-03-26T22:01:55.740Z,21.47
2023-03-26T22:04:22.592Z,21.42
2023-03-26T22:06:49.393Z,21.54
2023-03-26T22:09:18.499Z,21.64
2023-03-26T22:11:47.554Z,21.66
2023-03-26T22:14:14.291Z,21.82
2023-03-26T22:16:41.511Z,21.88
2023-03-26T22:19:08.607Z,21.94
2023-03-26T22:21:35.741Z,22.11
2023-03-26T22:24:03.961Z,22.06
2023-03-26T22:26:30.720Z,21.03
2023-03-26T22:28:57.554Z,18.72
2023-03-26T22:31:27.162Z,18.09
2023-03-26T22:33:53.948Z,19.52
2023-03-26T22:36:23.187Z,19.96
2023-03-26T22:38:52.794Z,20.45
2023-03-26T22:41:19.540Z,20.77
2023-03-26T22:43:46.308Z,21.03
2023-03-26T22:46:13.916Z,21.18
2023-03-26T22:48:40.754Z,21.26
2023-03-26T22:51:08.079Z,21.39
2023-03-26T22:53:34.850Z,21.46
2023-03-26T22:56:01.668Z,21.51
2023-03-26T22:58:28.449Z,21.66
2023-03-26T23:00:55.399Z,21.76
2023-03-26T23:03:35.079Z,21.67
2023-03-26T23:06:03.721Z,21.77
2023-03-26T23:08:30.985Z,21.95
2023-03-26T23:10:58.380Z,21.98
2023-03-26T23:13:25.345Z,21.97
2023-03-26T23:15:52.106Z,19.52
2023-03-26T23:18:18.927Z,18.60
2023-03-26T23:20:45.691Z,19.05
2023-03-26T23:23:12.438Z,19.30
2023-03-26T23:25:40.615Z,19.99
2023-03-26T23:28:07.385Z,20.34
2023-03-26T23:30:35.525Z,20.68
2023-03-26T23:33:02.346Z,20.92
2023-03-26T23:35:29.435Z,21.03
2023-03-26T23:37:56.272Z,21.16
2023-03-26T23:40:23.266Z,21.28
2023-03-26T23:42:50.098Z,21.43
2023-03-26T23:45:17.256Z,21.49
2023-03-26T23:47:44.466Z,21.51
2023-03-26T23:50:11.400Z,21.66
2023-03-26T23:52:38.165Z,21.68
2023-03-26T23:55:05.776Z,21.74
2023-03-26T23:57:32.579Z,21.80
2023-03-26T23:59:59.352Z,21.96
